Профили для светильников(ID 16686515)

Arlight(ID 10714346)

ID Название Рейтинг Цена Цена(Обновлена) Кол-во характеристик Кол-во отзывов Кол-во фото Кол-во SKU
668141416 Комплект (профиль, рассеиватель) Arlight ALU-ROUND-2000ANOD+FROST 0 4977 ₽ 2021-04-14 14:58:22 15 0 2
668141648 Профиль Arlight ARH-LINE-1726-2000ANOD 0 987 ₽ 2021-04-14 14:58:22 13 0 2
668142192 Комплект (профиль, рассеиватель) Arlight ALU-POWER-RW80F-2000ANOD+CLEAR-P 0 10406 ₽ 2021-04-14 14:58:26 15 0 2
668142273 Профиль Arlight PLS-LOCK-H25-2000ANOD 0 1222 ₽ 2021-04-14 14:58:22 13 0 3
668143061 Комплект (профиль, рассеиватель) Arlight ALU-POWER-RW80F-2000ANOD+FROST 0 11235 ₽ 2021-04-14 14:58:22 15 0 2
668143267 Комплект (профиль, рассеиватель) Arlight ALU-WALL-US-2000ANOD+FROST 0 6300 ₽ 2021-04-14 14:58:26 15 0 2
668143290 Профиль Arlight PLS-F-HIDE-2000 0 1137 ₽ 2021-04-14 14:58:22 12 0 3
668143294 Комплект (профиль, рассеиватель) Arlight PDS-F-HIDE-2000 0 1167 ₽ 2021-04-14 14:58:22 14 0 3
668143334 Профиль Arlight ARH-LINE-2448-2000ANOD 0 1457 ₽ 2021-04-14 14:58:22 13 0 2
668143342 Профиль Arlight ARH-LINE-6085-2000 0 2220 ₽ 2021-04-14 14:58:22 13 0 3
668145186 Профиль Arlight ARH-LINIA72-FANTOM-2000ANOD 0 1568 ₽ 2021-04-14 14:58:22 11 0 2
668146190 Комплект (профиль, рассеиватель) Arlight ALU-POWER-W35-2000-F ANOD+FROST 0 7051 ₽ 2021-04-14 14:58:22 15 0 2
668146374 Профиль Arlight HR-F-2000 0 950 ₽ 2021-04-14 14:58:22 11 0 3
668146422 Профиль Arlight PDS45-T-2000ANOD 0 777 ₽ 2021-04-14 14:58:22 12 0 2
668161555 Комплект (профиль, рассеиватель) Arlight ALU-ROUND-2000ANOD+LEN30 0 7393 ₽ 2021-04-14 14:58:22 16 0 2
668167623 Профиль Arlight BOX57-DUAL-2000ANOD 0 3998 ₽ 2021-04-14 14:58:26 12 0 4
668167734 Профиль Arlight BOX52-2000 ANOD 0 3998 ₽ 2021-04-14 14:58:22 12 0 2
668167934 Профиль Arlight ALU-HANDRAIL-2000 FOR GLASS 17.5 0 7563 ₽ 2021-04-14 14:58:26 13 0 2
668169677 Профиль Arlight PAK-90-2000 0 1563 ₽ 2021-04-14 14:58:26 14 0 3
668175243 Профиль Arlight PAK-EDGE-SLIM-2000 0 2733 ₽ 2021-04-14 14:58:22 14 0 3
668175468 Профиль Arlight BOX73-A30-2000 ANOD 0 3442 ₽ 2021-04-14 14:58:22 12 0 4
668175534 Комплект (профиль, рассеиватель) Arlight ALU-POWER-W35S-2000 ANOD+FROST 0 6758 ₽ 2021-04-14 14:58:26 15 0 2
668175541 Профиль Arlight PLS-LOCK-H25-FA-2000ANOD 0 1665 ₽ 2021-04-14 14:58:22 12 0 3
668176283 Профиль Arlight BOX72-2000 ANOD 0 4497 ₽ 2021-04-14 14:58:26 11 0 2
668178141 Профиль Arlight BOX60-SIDE-2000ANOD 0 4247 ₽ 2021-04-14 14:58:26 12 0 4
668178258 Профиль Arlight SHELF-620-2000-SET ANOD 0 4498 ₽ 2021-04-14 14:58:22 13 0 4
668178261 Профиль Arlight PLS-LOCK-H25-FM-2000ANOD 0 1526 ₽ 2021-04-14 14:58:22 12 0 3
668179162 Профиль Arlight TOP-LINIA53-H28-2000ANOD 0 1249 ₽ 2021-04-14 14:58:26 13 0 2
668179185 Профиль Arlight BOX60-ONTOP-2000 ANOD 0 3192 ₽ 2021-04-14 14:58:26 12 0 3
668179193 Профиль Arlight TOP-LINIA53-2000ANOD 0 2568 ₽ 2021-04-14 14:58:22 13 0 2
668179199 Профиль Arlight PLS-LOCK-H25-FS-2000ANOD 0 885 ₽ 2021-04-14 14:58:22 13 0 3
668179225 Профиль Arlight KLUS-P45.30-2000ANOD 0 1421 ₽ 2021-04-14 14:58:22 10 0 2
668179254 Профиль Arlight STEP-2000 0 4164 ₽ 2021-04-14 14:58:22 12 0 5
668182178 Комплект (крепеж, заглушка) Arlight PEN JC100 0 1367 ₽ 2021-04-14 14:58:26 7 0 1
668201086 Профиль Arlight STEP-FRONT-2000ANOD 0 4620 ₽ 2021-04-14 14:58:22 13 0 2
751483462 Рассеиватель Arlight 012038 0 586 ₽ 2021-04-14 14:58:22 8 0 1
751535000 Рассеиватель Arlight 018643 0 445 ₽ 2021-04-14 14:58:22 7 0 1
867324724 Крепеж Arlight RING-ZD-SET, 2 шт. 0 1174 ₽ 2021-04-14 14:58:22 8 0 1
868036648 Крепеж Arlight ALM-V60 026723 0 610 ₽ 2021-04-14 14:58:22 6 0 1
868729537 Профиль Arlight SL-ARC-3535-D1500-N90 0 1240 ₽ 2021-04-14 14:58:22 12 0 1
© Copyright YM Сканнер.